Terminal Aerodrome Forecast
Issued by NWS Sterling, VA

Home | Current Version | Previous Version | Text Only | Print | Product List | Glossary On
Versions: 1 2 3 4 5 6 7 8 9 10 11 12 13 14 15 16 17 18 19 20 21 22 23 24 25
000
FTUS41 KLWX 020223 AAA
TAFIAD
TAF AMD
KIAD 020223Z 0202/0306 09005KT 2SM -DZ BR OVC003
      TEMPO 0203/0204 -TSRA OVC003CB
     FM020600 VRB04KT 2SM -DZ BR OVC003
     FM021200 16004KT 6SM BR BKN008 OVC015
     FM021600 16005KT P6SM BKN025
     FM021900 22009KT P6SM BKN050 BKN100
     FM022200 23006KT 5SM -SHRA BKN050 BKN100=

USA.gov is the U.S. government's official web portal to all federal, state and local government web resources and services.